sensor_id;sensor_type;location;lat;lon;timestamp;P1;durP1;ratioP1;P2;durP2;ratioP2
17235;SDS011;8734;59.272;17.780;2022-07-03T00:00:12;5.20;;;2.10;;
17235;SDS011;8734;59.272;17.780;2022-07-03T00:02:41;7.83;;;2.60;;
17235;SDS011;8734;59.272;17.780;2022-07-03T00:05:09;2.23;;;1.60;;
17235;SDS011;8734;59.272;17.780;2022-07-03T00:07:38;6.40;;;2.00;;
17235;SDS011;8734;59.272;17.780;2022-07-03T00:10:07;4.87;;;1.90;;
17235;SDS011;8734;59.272;17.780;2022-07-03T00:12:36;6.97;;;2.00;;
17235;SDS011;8734;59.272;17.780;2022-07-03T00:15:06;4.93;;;1.93;;
17235;SDS011;8734;59.272;17.780;2022-07-03T00:17:35;3.93;;;2.00;;
17235;SDS011;8734;59.272;17.780;2022-07-03T00:20:04;4.67;;;2.17;;
17235;SDS011;8734;59.272;17.780;2022-07-03T00:22:33;5.00;;;1.67;;
17235;SDS011;8734;59.272;17.780;2022-07-03T00:25:10;2.57;;;1.87;;
17235;SDS011;8734;59.272;17.780;2022-07-03T00:27:40;4.87;;;1.97;;
17235;SDS011;8734;59.272;17.780;2022-07-03T00:30:13;8.73;;;2.17;;
17235;SDS011;8734;59.272;17.780;2022-07-03T00:32:41;4.03;;;1.83;;
17235;SDS011;8734;59.272;17.780;2022-07-03T00:35:10;4.30;;;1.90;;
17235;SDS011;8734;59.272;17.780;2022-07-03T00:37:45;7.67;;;2.00;;
17235;SDS011;8734;59.272;17.780;2022-07-03T00:40:13;5.50;;;2.07;;
17235;SDS011;8734;59.272;17.780;2022-07-03T00:42:41;4.23;;;1.90;;
17235;SDS011;8734;59.272;17.780;2022-07-03T00:45:10;9.57;;;1.80;;
17235;SDS011;8734;59.272;17.780;2022-07-03T00:47:43;5.70;;;1.90;;
17235;SDS011;8734;59.272;17.780;2022-07-03T00:50:12;4.40;;;2.20;;
17235;SDS011;8734;59.272;17.780;2022-07-03T00:52:41;3.33;;;2.10;;
17235;SDS011;8734;59.272;17.780;2022-07-03T00:55:14;4.50;;;2.10;;
17235;SDS011;8734;59.272;17.780;2022-07-03T00:57:45;3.40;;;1.80;;
17235;SDS011;8734;59.272;17.780;2022-07-03T01:00:16;4.83;;;2.13;;
17235;SDS011;8734;59.272;17.780;2022-07-03T01:02:46;4.97;;;2.17;;
17235;SDS011;8734;59.272;17.780;2022-07-03T01:05:24;11.43;;;3.07;;
17235;SDS011;8734;59.272;17.780;2022-07-03T01:08:00;5.80;;;2.30;;
17235;SDS011;8734;59.272;17.780;2022-07-03T01:10:37;4.80;;;2.20;;
17235;SDS011;8734;59.272;17.780;2022-07-03T01:13:21;3.57;;;2.20;;
17235;SDS011;8734;59.272;17.780;2022-07-03T01:16:01;5.40;;;2.30;;
17235;SDS011;8734;59.272;17.780;2022-07-03T01:18:35;3.30;;;2.40;;
17235;SDS011;8734;59.272;17.780;2022-07-03T01:21:08;3.73;;;2.40;;
17235;SDS011;8734;59.272;17.780;2022-07-03T01:23:46;3.03;;;2.30;;
17235;SDS011;8734;59.272;17.780;2022-07-03T01:26:29;6.73;;;2.90;;
17235;SDS011;8734;59.272;17.780;2022-07-03T01:29:02;9.60;;;2.27;;
17235;SDS011;8734;59.272;17.780;2022-07-03T01:31:35;3.47;;;2.20;;
17235;SDS011;8734;59.272;17.780;2022-07-03T01:34:06;4.23;;;2.27;;
17235;SDS011;8734;59.272;17.780;2022-07-03T01:36:41;2.33;;;2.13;;
17235;SDS011;8734;59.272;17.780;2022-07-03T01:39:11;5.70;;;2.60;;
17235;SDS011;8734;59.272;17.780;2022-07-03T01:41:50;3.07;;;2.27;;
17235;SDS011;8734;59.272;17.780;2022-07-03T01:44:21;4.27;;;2.47;;
17235;SDS011;8734;59.272;17.780;2022-07-03T01:46:51;8.53;;;2.20;;
17235;SDS011;8734;59.272;17.780;2022-07-03T01:49:21;8.00;;;2.90;;
17235;SDS011;8734;59.272;17.780;2022-07-03T01:51:50;7.10;;;2.60;;
17235;SDS011;8734;59.272;17.780;2022-07-03T01:54:21;5.47;;;2.80;;
17235;SDS011;8734;59.272;17.780;2022-07-03T01:56:54;4.20;;;2.30;;
17235;SDS011;8734;59.272;17.780;2022-07-03T01:59:22;7.33;;;2.83;;
17235;SDS011;8734;59.272;17.780;2022-07-03T02:01:51;7.30;;;2.40;;
17235;SDS011;8734;59.272;17.780;2022-07-03T02:04:28;8.93;;;2.57;;
17235;SDS011;8734;59.272;17.780;2022-07-03T02:07:01;8.70;;;3.00;;
17235;SDS011;8734;59.272;17.780;2022-07-03T02:09:35;4.13;;;2.63;;
17235;SDS011;8734;59.272;17.780;2022-07-03T02:12:13;5.13;;;2.23;;
17235;SDS011;8734;59.272;17.780;2022-07-03T02:14:47;5.80;;;2.87;;
17235;SDS011;8734;59.272;17.780;2022-07-03T02:17:21;4.53;;;2.50;;
17235;SDS011;8734;59.272;17.780;2022-07-03T02:19:52;5.60;;;2.40;;
17235;SDS011;8734;59.272;17.780;2022-07-03T02:22:25;7.13;;;2.30;;
17235;SDS011;8734;59.272;17.780;2022-07-03T02:24:56;5.03;;;2.77;;
17235;SDS011;8734;59.272;17.780;2022-07-03T02:27:38;6.37;;;2.60;;
17235;SDS011;8734;59.272;17.780;2022-07-03T02:30:10;7.77;;;2.47;;
17235;SDS011;8734;59.272;17.780;2022-07-03T02:32:44;7.97;;;2.50;;
17235;SDS011;8734;59.272;17.780;2022-07-03T02:35:17;5.80;;;2.50;;
17235;SDS011;8734;59.272;17.780;2022-07-03T02:37:50;8.77;;;2.87;;
17235;SDS011;8734;59.272;17.780;2022-07-03T02:40:26;6.00;;;2.90;;
17235;SDS011;8734;59.272;17.780;2022-07-03T02:43:11;3.27;;;2.50;;
17235;SDS011;8734;59.272;17.780;2022-07-03T02:45:45;7.07;;;2.90;;
17235;SDS011;8734;59.272;17.780;2022-07-03T02:48:24;20.03;;;3.60;;
17235;SDS011;8734;59.272;17.780;2022-07-03T02:50:58;5.13;;;2.97;;
17235;SDS011;8734;59.272;17.780;2022-07-03T02:53:33;6.03;;;2.90;;
17235;SDS011;8734;59.272;17.780;2022-07-03T02:56:07;6.43;;;3.20;;
17235;SDS011;8734;59.272;17.780;2022-07-03T02:58:48;9.37;;;2.97;;
17235;SDS011;8734;59.272;17.780;2022-07-03T03:01:29;9.47;;;2.90;;
17235;SDS011;8734;59.272;17.780;2022-07-03T03:04:07;4.40;;;2.53;;
17235;SDS011;8734;59.272;17.780;2022-07-03T03:06:42;3.17;;;2.27;;
17235;SDS011;8734;59.272;17.780;2022-07-03T03:09:19;7.33;;;2.73;;
17235;SDS011;8734;59.272;17.780;2022-07-03T03:11:48;6.33;;;2.73;;
17235;SDS011;8734;59.272;17.780;2022-07-03T03:14:19;5.97;;;2.80;;
17235;SDS011;8734;59.272;17.780;2022-07-03T03:16:48;5.53;;;2.70;;
17235;SDS011;8734;59.272;17.780;2022-07-03T03:19:19;5.07;;;2.83;;
17235;SDS011;8734;59.272;17.780;2022-07-03T03:21:54;5.43;;;3.00;;
17235;SDS011;8734;59.272;17.780;2022-07-03T03:24:26;5.97;;;3.33;;
17235;SDS011;8734;59.272;17.780;2022-07-03T03:26:57;4.43;;;2.70;;
17235;SDS011;8734;59.272;17.780;2022-07-03T03:29:28;8.83;;;2.90;;
17235;SDS011;8734;59.272;17.780;2022-07-03T03:31:56;5.87;;;2.70;;
17235;SDS011;8734;59.272;17.780;2022-07-03T03:34:29;5.67;;;2.60;;
17235;SDS011;8734;59.272;17.780;2022-07-03T03:37:00;2.87;;;2.27;;
17235;SDS011;8734;59.272;17.780;2022-07-03T03:39:28;10.83;;;3.10;;
17235;SDS011;8734;59.272;17.780;2022-07-03T03:41:57;4.80;;;2.80;;
17235;SDS011;8734;59.272;17.780;2022-07-03T03:44:28;7.57;;;2.90;;
17235;SDS011;8734;59.272;17.780;2022-07-03T03:46:57;4.57;;;2.70;;
17235;SDS011;8734;59.272;17.780;2022-07-03T03:49:25;5.50;;;2.70;;
17235;SDS011;8734;59.272;17.780;2022-07-03T03:51:55;7.40;;;2.30;;
17235;SDS011;8734;59.272;17.780;2022-07-03T03:54:24;3.33;;;2.30;;
17235;SDS011;8734;59.272;17.780;2022-07-03T03:56:53;5.57;;;2.77;;
17235;SDS011;8734;59.272;17.780;2022-07-03T03:59:21;7.70;;;2.63;;
17235;SDS011;8734;59.272;17.780;2022-07-03T04:01:51;3.73;;;2.50;;
17235;SDS011;8734;59.272;17.780;2022-07-03T04:04:19;8.90;;;2.67;;
17235;SDS011;8734;59.272;17.780;2022-07-03T04:06:49;7.47;;;2.43;;
17235;SDS011;8734;59.272;17.780;2022-07-03T04:09:17;8.13;;;2.87;;
17235;SDS011;8734;59.272;17.780;2022-07-03T04:11:45;8.53;;;2.33;;
17235;SDS011;8734;59.272;17.780;2022-07-03T04:14:14;5.90;;;2.20;;
17235;SDS011;8734;59.272;17.780;2022-07-03T04:16:43;4.43;;;2.37;;
17235;SDS011;8734;59.272;17.780;2022-07-03T04:19:12;5.07;;;2.47;;
17235;SDS011;8734;59.272;17.780;2022-07-03T04:21:41;5.77;;;2.27;;
17235;SDS011;8734;59.272;17.780;2022-07-03T04:24:09;5.73;;;2.43;;
17235;SDS011;8734;59.272;17.780;2022-07-03T04:26:37;6.83;;;2.30;;
17235;SDS011;8734;59.272;17.780;2022-07-03T04:29:06;3.80;;;2.20;;
17235;SDS011;8734;59.272;17.780;2022-07-03T04:31:34;7.83;;;2.20;;
17235;SDS011;8734;59.272;17.780;2022-07-03T04:34:03;4.17;;;1.90;;
17235;SDS011;8734;59.272;17.780;2022-07-03T04:36:33;7.50;;;1.80;;
17235;SDS011;8734;59.272;17.780;2022-07-03T04:39:01;7.90;;;2.00;;
17235;SDS011;8734;59.272;17.780;2022-07-03T04:41:30;4.40;;;2.10;;
17235;SDS011;8734;59.272;17.780;2022-07-03T04:43:59;7.23;;;2.17;;
17235;SDS011;8734;59.272;17.780;2022-07-03T04:46:27;8.63;;;2.10;;
17235;SDS011;8734;59.272;17.780;2022-07-03T04:48:56;5.90;;;2.10;;
17235;SDS011;8734;59.272;17.780;2022-07-03T04:51:24;5.70;;;1.93;;
17235;SDS011;8734;59.272;17.780;2022-07-03T04:53:53;4.77;;;1.90;;
17235;SDS011;8734;59.272;17.780;2022-07-03T04:56:22;6.03;;;2.00;;
17235;SDS011;8734;59.272;17.780;2022-07-03T04:58:50;4.47;;;1.70;;
17235;SDS011;8734;59.272;17.780;2022-07-03T05:01:18;12.17;;;3.60;;
17235;SDS011;8734;59.272;17.780;2022-07-03T05:03:47;5.70;;;2.17;;
17235;SDS011;8734;59.272;17.780;2022-07-03T05:06:16;4.60;;;1.70;;
17235;SDS011;8734;59.272;17.780;2022-07-03T05:08:46;8.93;;;2.03;;
17235;SDS011;8734;59.272;17.780;2022-07-03T05:11:15;2.90;;;1.40;;
17235;SDS011;8734;59.272;17.780;2022-07-03T05:13:44;4.33;;;1.70;;
17235;SDS011;8734;59.272;17.780;2022-07-03T05:16:12;5.13;;;1.70;;
17235;SDS011;8734;59.272;17.780;2022-07-03T05:18:40;4.87;;;1.57;;
17235;SDS011;8734;59.272;17.780;2022-07-03T05:21:09;5.00;;;2.00;;
17235;SDS011;8734;59.272;17.780;2022-07-03T05:23:37;3.53;;;1.57;;
17235;SDS011;8734;59.272;17.780;2022-07-03T05:26:06;3.97;;;1.80;;
17235;SDS011;8734;59.272;17.780;2022-07-03T05:28:36;3.17;;;1.57;;
17235;SDS011;8734;59.272;17.780;2022-07-03T05:31:04;7.80;;;1.70;;
17235;SDS011;8734;59.272;17.780;2022-07-03T05:33:33;2.83;;;1.40;;
17235;SDS011;8734;59.272;17.780;2022-07-03T05:36:01;7.27;;;1.50;;
17235;SDS011;8734;59.272;17.780;2022-07-03T05:38:30;5.27;;;1.40;;
17235;SDS011;8734;59.272;17.780;2022-07-03T05:41:16;6.53;;;1.63;;
17235;SDS011;8734;59.272;17.780;2022-07-03T05:43:45;3.83;;;1.70;;
17235;SDS011;8734;59.272;17.780;2022-07-03T05:46:14;7.43;;;1.70;;
17235;SDS011;8734;59.272;17.780;2022-07-03T05:48:42;9.93;;;1.30;;
17235;SDS011;8734;59.272;17.780;2022-07-03T05:51:11;6.67;;;1.40;;
17235;SDS011;8734;59.272;17.780;2022-07-03T05:53:39;2.90;;;1.33;;
17235;SDS011;8734;59.272;17.780;2022-07-03T05:56:07;6.63;;;1.50;;
17235;SDS011;8734;59.272;17.780;2022-07-03T05:58:35;6.90;;;1.70;;
17235;SDS011;8734;59.272;17.780;2022-07-03T06:01:05;6.97;;;1.10;;
17235;SDS011;8734;59.272;17.780;2022-07-03T06:03:34;3.63;;;1.17;;
17235;SDS011;8734;59.272;17.780;2022-07-03T06:06:02;4.43;;;1.40;;
17235;SDS011;8734;59.272;17.780;2022-07-03T06:08:31;3.70;;;1.10;;
17235;SDS011;8734;59.272;17.780;2022-07-03T06:10:59;4.10;;;1.20;;
17235;SDS011;8734;59.272;17.780;2022-07-03T06:13:27;7.30;;;1.10;;
17235;SDS011;8734;59.272;17.780;2022-07-03T06:15:56;8.57;;;2.40;;
17235;SDS011;8734;59.272;17.780;2022-07-03T06:18:26;5.73;;;1.23;;
17235;SDS011;8734;59.272;17.780;2022-07-03T06:20:54;2.97;;;1.20;;
17235;SDS011;8734;59.272;17.780;2022-07-03T06:23:22;5.30;;;0.90;;
17235;SDS011;8734;59.272;17.780;2022-07-03T06:26:11;5.03;;;1.30;;
17235;SDS011;8734;59.272;17.780;2022-07-03T06:28:39;4.93;;;1.10;;
17235;SDS011;8734;59.272;17.780;2022-07-03T06:31:08;3.37;;;1.23;;
17235;SDS011;8734;59.272;17.780;2022-07-03T06:33:37;7.60;;;1.50;;
17235;SDS011;8734;59.272;17.780;2022-07-03T06:36:06;4.37;;;0.90;;
17235;SDS011;8734;59.272;17.780;2022-07-03T06:38:34;5.37;;;1.00;;
17235;SDS011;8734;59.272;17.780;2022-07-03T06:41:03;4.67;;;1.00;;
17235;SDS011;8734;59.272;17.780;2022-07-03T06:43:31;5.40;;;1.10;;
17235;SDS011;8734;59.272;17.780;2022-07-03T06:45:59;4.13;;;1.07;;
17235;SDS011;8734;59.272;17.780;2022-07-03T06:48:28;5.80;;;1.20;;
17235;SDS011;8734;59.272;17.780;2022-07-03T06:50:57;5.40;;;1.10;;
17235;SDS011;8734;59.272;17.780;2022-07-03T06:53:26;4.87;;;1.33;;
17235;SDS011;8734;59.272;17.780;2022-07-03T06:55:54;4.53;;;1.20;;
17235;SDS011;8734;59.272;17.780;2022-07-03T06:58:23;5.97;;;1.10;;
17235;SDS011;8734;59.272;17.780;2022-07-03T07:00:51;7.63;;;1.10;;
17235;SDS011;8734;59.272;17.780;2022-07-03T07:03:19;2.90;;;0.93;;
17235;SDS011;8734;59.272;17.780;2022-07-03T07:05:48;3.73;;;0.90;;
17235;SDS011;8734;59.272;17.780;2022-07-03T07:08:17;2.93;;;1.20;;
17235;SDS011;8734;59.272;17.780;2022-07-03T07:10:45;6.17;;;0.90;;
17235;SDS011;8734;59.272;17.780;2022-07-03T07:13:14;10.30;;;1.80;;
17235;SDS011;8734;59.272;17.780;2022-07-03T07:15:42;3.57;;;1.03;;
17235;SDS011;8734;59.272;17.780;2022-07-03T07:18:10;5.23;;;1.43;;
17235;SDS011;8734;59.272;17.780;2022-07-03T07:20:39;4.38;;;1.02;;
17235;SDS011;8734;59.272;17.780;2022-07-03T07:23:07;4.97;;;1.27;;
17235;SDS011;8734;59.272;17.780;2022-07-03T07:25:37;6.32;;;1.27;;
17235;SDS011;8734;59.272;17.780;2022-07-03T07:28:09;2.17;;;0.80;;
17235;SDS011;8734;59.272;17.780;2022-07-03T07:30:38;6.55;;;1.13;;
17235;SDS011;8734;59.272;17.780;2022-07-03T07:33:06;7.78;;;1.20;;
17235;SDS011;8734;59.272;17.780;2022-07-03T07:35:35;3.50;;;1.20;;
17235;SDS011;8734;59.272;17.780;2022-07-03T07:38:04;8.47;;;1.00;;
17235;SDS011;8734;59.272;17.780;2022-07-03T07:40:34;6.93;;;1.30;;
17235;SDS011;8734;59.272;17.780;2022-07-03T07:43:05;4.53;;;1.10;;
17235;SDS011;8734;59.272;17.780;2022-07-03T07:45:33;2.63;;;0.80;;
17235;SDS011;8734;59.272;17.780;2022-07-03T07:48:02;5.93;;;1.63;;
17235;SDS011;8734;59.272;17.780;2022-07-03T07:50:31;6.75;;;1.42;;
17235;SDS011;8734;59.272;17.780;2022-07-03T07:53:00;3.13;;;1.13;;
17235;SDS011;8734;59.272;17.780;2022-07-03T07:55:28;8.43;;;1.60;;
17235;SDS011;8734;59.272;17.780;2022-07-03T07:57:58;4.28;;;1.30;;
17235;SDS011;8734;59.272;17.780;2022-07-03T08:00:26;4.07;;;1.10;;
17235;SDS011;8734;59.272;17.780;2022-07-03T08:02:55;2.60;;;0.90;;
17235;SDS011;8734;59.272;17.780;2022-07-03T08:05:41;5.78;;;1.35;;
17235;SDS011;8734;59.272;17.780;2022-07-03T08:08:10;5.65;;;1.17;;
17235;SDS011;8734;59.272;17.780;2022-07-03T08:10:40;8.63;;;1.33;;
17235;SDS011;8734;59.272;17.780;2022-07-03T08:13:12;7.28;;;1.10;;
17235;SDS011;8734;59.272;17.780;2022-07-03T08:15:42;3.35;;;1.13;;
17235;SDS011;8734;59.272;17.780;2022-07-03T08:18:11;2.75;;;0.80;;
17235;SDS011;8734;59.272;17.780;2022-07-03T08:20:40;2.97;;;1.02;;
17235;SDS011;8734;59.272;17.780;2022-07-03T08:23:08;3.78;;;1.05;;
17235;SDS011;8734;59.272;17.780;2022-07-03T08:25:37;5.28;;;1.13;;
17235;SDS011;8734;59.272;17.780;2022-07-03T08:28:05;7.95;;;1.50;;
17235;SDS011;8734;59.272;17.780;2022-07-03T08:30:35;4.82;;;1.35;;
17235;SDS011;8734;59.272;17.780;2022-07-03T08:33:04;3.25;;;1.00;;
17235;SDS011;8734;59.272;17.780;2022-07-03T08:35:32;5.80;;;1.17;;
17235;SDS011;8734;59.272;17.780;2022-07-03T08:38:00;3.72;;;0.98;;
17235;SDS011;8734;59.272;17.780;2022-07-03T08:40:29;7.57;;;0.88;;
17235;SDS011;8734;59.272;17.780;2022-07-03T08:42:58;5.60;;;1.08;;
17235;SDS011;8734;59.272;17.780;2022-07-03T08:45:30;4.10;;;1.25;;
17235;SDS011;8734;59.272;17.780;2022-07-03T08:48:02;7.20;;;1.50;;
17235;SDS011;8734;59.272;17.780;2022-07-03T08:50:34;5.63;;;1.27;;
17235;SDS011;8734;59.272;17.780;2022-07-03T08:53:05;3.53;;;0.90;;
17235;SDS011;8734;59.272;17.780;2022-07-03T08:55:33;36.47;;;6.68;;
17235;SDS011;8734;59.272;17.780;2022-07-03T08:58:02;3.45;;;0.95;;
17235;SDS011;8734;59.272;17.780;2022-07-03T09:00:33;4.07;;;1.13;;
17235;SDS011;8734;59.272;17.780;2022-07-03T09:03:04;5.00;;;1.48;;
17235;SDS011;8734;59.272;17.780;2022-07-03T09:05:38;2.63;;;0.80;;
17235;SDS011;8734;59.272;17.780;2022-07-03T09:08:07;11.88;;;2.50;;
17235;SDS011;8734;59.272;17.780;2022-07-03T09:10:36;8.15;;;1.40;;
17235;SDS011;8734;59.272;17.780;2022-07-03T09:13:05;2.17;;;0.73;;
17235;SDS011;8734;59.272;17.780;2022-07-03T09:15:35;2.90;;;0.75;;
17235;SDS011;8734;59.272;17.780;2022-07-03T09:18:05;2.33;;;0.90;;
17235;SDS011;8734;59.272;17.780;2022-07-03T09:20:36;5.47;;;1.15;;
17235;SDS011;8734;59.272;17.780;2022-07-03T09:23:11;5.75;;;0.95;;
17235;SDS011;8734;59.272;17.780;2022-07-03T09:25:52;1.60;;;0.73;;
17235;SDS011;8734;59.272;17.780;2022-07-03T09:28:21;2.35;;;0.80;;
17235;SDS011;8734;59.272;17.780;2022-07-03T09:30:57;4.13;;;1.15;;
17235;SDS011;8734;59.272;17.780;2022-07-03T09:33:28;1.75;;;0.60;;
17235;SDS011;8734;59.272;17.780;2022-07-03T09:35:56;3.65;;;0.70;;
17235;SDS011;8734;59.272;17.780;2022-07-03T09:38:25;4.85;;;0.95;;
17235;SDS011;8734;59.272;17.780;2022-07-03T09:40:54;3.63;;;0.75;;
17235;SDS011;8734;59.272;17.780;2022-07-03T09:43:24;1.23;;;0.70;;
17235;SDS011;8734;59.272;17.780;2022-07-03T09:45:53;2.90;;;0.60;;
17235;SDS011;8734;59.272;17.780;2022-07-03T09:48:23;2.35;;;0.68;;
17235;SDS011;8734;59.272;17.780;2022-07-03T09:51:18;1.05;;;0.68;;
17235;SDS011;8734;59.272;17.780;2022-07-03T09:53:51;8.80;;;0.90;;
17235;SDS011;8734;59.272;17.780;2022-07-03T09:56:24;1.35;;;0.57;;
17235;SDS011;8734;59.272;17.780;2022-07-03T09:59:00;2.67;;;1.38;;
17235;SDS011;8734;59.272;17.780;2022-07-03T10:01:34;2.00;;;0.60;;
17235;SDS011;8734;59.272;17.780;2022-07-03T10:04:10;1.90;;;0.80;;
17235;SDS011;8734;59.272;17.780;2022-07-03T10:06:52;5.68;;;0.88;;
17235;SDS011;8734;59.272;17.780;2022-07-03T10:09:22;2.45;;;0.80;;
17235;SDS011;8734;59.272;17.780;2022-07-03T10:11:52;2.17;;;0.60;;
17235;SDS011;8734;59.272;17.780;2022-07-03T10:14:22;8.52;;;0.95;;
17235;SDS011;8734;59.272;17.780;2022-07-03T10:16:51;2.97;;;0.60;;
17235;SDS011;8734;59.272;17.780;2022-07-03T10:19:22;1.55;;;0.70;;
17235;SDS011;8734;59.272;17.780;2022-07-03T10:21:55;2.78;;;0.68;;
17235;SDS011;8734;59.272;17.780;2022-07-03T10:24:25;1.67;;;0.80;;
17235;SDS011;8734;59.272;17.780;2022-07-03T10:26:55;3.28;;;0.80;;
17235;SDS011;8734;59.272;17.780;2022-07-03T10:29:25;1.98;;;0.85;;
17235;SDS011;8734;59.272;17.780;2022-07-03T10:31:55;5.30;;;0.60;;
17235;SDS011;8734;59.272;17.780;2022-07-03T10:34:25;4.53;;;0.65;;
17235;SDS011;8734;59.272;17.780;2022-07-03T10:36:57;2.53;;;0.70;;
17235;SDS011;8734;59.272;17.780;2022-07-03T10:39:31;2.38;;;0.70;;
17235;SDS011;8734;59.272;17.780;2022-07-03T10:42:06;1.40;;;0.70;;
17235;SDS011;8734;59.272;17.780;2022-07-03T10:45:05;7.82;;;0.60;;
17235;SDS011;8734;59.272;17.780;2022-07-03T10:47:36;2.72;;;0.85;;
17235;SDS011;8734;59.272;17.780;2022-07-03T10:50:10;1.52;;;0.70;;
17235;SDS011;8734;59.272;17.780;2022-07-03T10:52:41;2.97;;;1.25;;
17235;SDS011;8734;59.272;17.780;2022-07-03T10:55:11;0.95;;;0.55;;
17235;SDS011;8734;59.272;17.780;2022-07-03T10:57:41;4.93;;;0.70;;
17235;SDS011;8734;59.272;17.780;2022-07-03T11:02:48;1.58;;;0.68;;
17235;SDS011;8734;59.272;17.780;2022-07-03T11:05:19;2.10;;;0.60;;
17235;SDS011;8734;59.272;17.780;2022-07-03T11:08:06;4.15;;;0.70;;
17235;SDS011;8734;59.272;17.780;2022-07-03T11:10:39;1.63;;;0.57;;
17235;SDS011;8734;59.272;17.780;2022-07-03T11:13:13;1.05;;;0.50;;
17235;SDS011;8734;59.272;17.780;2022-07-03T11:15:51;1.40;;;0.65;;
17235;SDS011;8734;59.272;17.780;2022-07-03T11:18:24;1.77;;;0.52;;
17235;SDS011;8734;59.272;17.780;2022-07-03T11:29:57;2.70;;;0.73;;
17235;SDS011;8734;59.272;17.780;2022-07-03T11:32:42;1.27;;;0.65;;
17235;SDS011;8734;59.272;17.780;2022-07-03T11:38:17;4.38;;;0.60;;
17235;SDS011;8734;59.272;17.780;2022-07-03T11:40:51;0.73;;;0.57;;
17235;SDS011;8734;59.272;17.780;2022-07-03T11:43:20;4.03;;;0.70;;
17235;SDS011;8734;59.272;17.780;2022-07-03T11:45:49;0.47;;;0.40;;
17235;SDS011;8734;59.272;17.780;2022-07-03T11:48:18;2.42;;;1.23;;
17235;SDS011;8734;59.272;17.780;2022-07-03T11:50:49;1.27;;;0.70;;
17235;SDS011;8734;59.272;17.780;2022-07-03T11:53:22;1.10;;;0.70;;
17235;SDS011;8734;59.272;17.780;2022-07-03T11:55:54;2.38;;;0.60;;
17235;SDS011;8734;59.272;17.780;2022-07-03T11:58:23;3.72;;;0.77;;
17235;SDS011;8734;59.272;17.780;2022-07-03T12:01:06;1.42;;;0.82;;
17235;SDS011;8734;59.272;17.780;2022-07-03T12:03:37;1.42;;;0.70;;
17235;SDS011;8734;59.272;17.780;2022-07-03T12:06:06;5.00;;;1.10;;
17235;SDS011;8734;59.272;17.780;2022-07-03T12:08:34;2.65;;;0.70;;
17235;SDS011;8734;59.272;17.780;2022-07-03T12:11:06;4.78;;;0.80;;
17235;SDS011;8734;59.272;17.780;2022-07-03T12:13:36;1.38;;;0.70;;
17235;SDS011;8734;59.272;17.780;2022-07-03T12:16:05;1.77;;;0.60;;
17235;SDS011;8734;59.272;17.780;2022-07-03T12:18:48;4.05;;;0.68;;
17235;SDS011;8734;59.272;17.780;2022-07-03T12:21:18;1.17;;;0.60;;
17235;SDS011;8734;59.272;17.780;2022-07-03T12:23:47;2.97;;;0.82;;
17235;SDS011;8734;59.272;17.780;2022-07-03T12:26:28;1.75;;;0.60;;
17235;SDS011;8734;59.272;17.780;2022-07-03T12:28:58;2.83;;;0.80;;
17235;SDS011;8734;59.272;17.780;2022-07-03T12:31:28;1.52;;;0.60;;
17235;SDS011;8734;59.272;17.780;2022-07-03T12:33:57;3.25;;;0.90;;
17235;SDS011;8734;59.272;17.780;2022-07-03T12:36:27;1.35;;;0.60;;
17235;SDS011;8734;59.272;17.780;2022-07-03T12:38:56;5.65;;;0.80;;
17235;SDS011;8734;59.272;17.780;2022-07-03T12:41:27;3.58;;;0.80;;
17235;SDS011;8734;59.272;17.780;2022-07-03T12:43:57;4.00;;;0.63;;
17235;SDS011;8734;59.272;17.780;2022-07-03T12:46:26;2.42;;;0.85;;
17235;SDS011;8734;59.272;17.780;2022-07-03T12:49:07;1.38;;;0.50;;
17235;SDS011;8734;59.272;17.780;2022-07-03T12:51:40;3.17;;;0.80;;
17235;SDS011;8734;59.272;17.780;2022-07-03T12:54:11;1.92;;;0.90;;
17235;SDS011;8734;59.272;17.780;2022-07-03T12:56:42;2.28;;;0.95;;
17235;SDS011;8734;59.272;17.780;2022-07-03T12:59:23;8.57;;;1.35;;
17235;SDS011;8734;59.272;17.780;2022-07-03T13:02:00;2.75;;;0.60;;
17235;SDS011;8734;59.272;17.780;2022-07-03T13:04:30;1.95;;;0.75;;
17235;SDS011;8734;59.272;17.780;2022-07-03T13:07:03;3.20;;;0.75;;
17235;SDS011;8734;59.272;17.780;2022-07-03T13:09:33;0.60;;;0.60;;
17235;SDS011;8734;59.272;17.780;2022-07-03T13:12:04;4.28;;;0.82;;
17235;SDS011;8734;59.272;17.780;2022-07-03T13:14:33;0.80;;;0.70;;
17235;SDS011;8734;59.272;17.780;2022-07-03T13:17:02;0.90;;;0.70;;
17235;SDS011;8734;59.272;17.780;2022-07-03T13:19:30;5.07;;;0.93;;
17235;SDS011;8734;59.272;17.780;2022-07-03T13:21:59;1.33;;;0.60;;
17235;SDS011;8734;59.272;17.780;2022-07-03T13:24:27;5.97;;;0.65;;
17235;SDS011;8734;59.272;17.780;2022-07-03T13:26:56;2.60;;;0.68;;
17235;SDS011;8734;59.272;17.780;2022-07-03T13:29:26;3.92;;;0.80;;
17235;SDS011;8734;59.272;17.780;2022-07-03T13:31:55;1.08;;;0.70;;
17235;SDS011;8734;59.272;17.780;2022-07-03T13:34:23;5.20;;;0.60;;
17235;SDS011;8734;59.272;17.780;2022-07-03T13:36:52;3.47;;;0.80;;
17235;SDS011;8734;59.272;17.780;2022-07-03T13:39:20;2.33;;;0.70;;
17235;SDS011;8734;59.272;17.780;2022-07-03T13:41:48;1.92;;;0.75;;
17235;SDS011;8734;59.272;17.780;2022-07-03T13:44:17;10.50;;;0.90;;
17235;SDS011;8734;59.272;17.780;2022-07-03T13:46:47;2.53;;;0.90;;
17235;SDS011;8734;59.272;17.780;2022-07-03T13:49:17;4.55;;;1.02;;
17235;SDS011;8734;59.272;17.780;2022-07-03T13:51:47;1.90;;;0.90;;
17235;SDS011;8734;59.272;17.780;2022-07-03T13:54:15;3.00;;;0.60;;
17235;SDS011;8734;59.272;17.780;2022-07-03T13:56:44;3.88;;;0.90;;
17235;SDS011;8734;59.272;17.780;2022-07-03T13:59:13;3.53;;;0.95;;
17235;SDS011;8734;59.272;17.780;2022-07-03T14:01:41;2.97;;;1.10;;
17235;SDS011;8734;59.272;17.780;2022-07-03T14:04:11;0.95;;;0.70;;
17235;SDS011;8734;59.272;17.780;2022-07-03T14:06:40;4.50;;;0.80;;
17235;SDS011;8734;59.272;17.780;2022-07-03T14:09:08;1.05;;;0.82;;
17235;SDS011;8734;59.272;17.780;2022-07-03T14:11:36;2.05;;;0.70;;
17235;SDS011;8734;59.272;17.780;2022-07-03T14:14:05;4.75;;;0.88;;
17235;SDS011;8734;59.272;17.780;2022-07-03T14:16:34;2.60;;;0.98;;
17235;SDS011;8734;59.272;17.780;2022-07-03T14:19:02;1.58;;;0.75;;
17235;SDS011;8734;59.272;17.780;2022-07-03T14:21:33;4.60;;;1.00;;
17235;SDS011;8734;59.272;17.780;2022-07-03T14:24:02;1.23;;;0.68;;
17235;SDS011;8734;59.272;17.780;2022-07-03T14:26:31;2.63;;;0.80;;
17235;SDS011;8734;59.272;17.780;2022-07-03T14:29:13;4.90;;;1.00;;
17235;SDS011;8734;59.272;17.780;2022-07-03T14:32:07;3.30;;;0.90;;
17235;SDS011;8734;59.272;17.780;2022-07-03T14:34:54;3.33;;;0.90;;
17235;SDS011;8734;59.272;17.780;2022-07-03T14:37:24;1.13;;;0.60;;
17235;SDS011;8734;59.272;17.780;2022-07-03T14:39:53;1.75;;;0.68;;
17235;SDS011;8734;59.272;17.780;2022-07-03T14:42:21;2.97;;;0.93;;
17235;SDS011;8734;59.272;17.780;2022-07-03T14:44:51;1.48;;;0.77;;
17235;SDS011;8734;59.272;17.780;2022-07-03T14:47:19;5.53;;;0.77;;
17235;SDS011;8734;59.272;17.780;2022-07-03T14:49:48;2.70;;;0.57;;
17235;SDS011;8734;59.272;17.780;2022-07-03T14:52:16;2.97;;;0.68;;
17235;SDS011;8734;59.272;17.780;2022-07-03T14:54:46;2.72;;;0.70;;
17235;SDS011;8734;59.272;17.780;2022-07-03T14:57:24;4.25;;;0.77;;
17235;SDS011;8734;59.272;17.780;2022-07-03T15:00:00;2.55;;;0.88;;
17235;SDS011;8734;59.272;17.780;2022-07-03T15:02:41;5.07;;;1.38;;
17235;SDS011;8734;59.272;17.780;2022-07-03T15:05:11;5.70;;;1.10;;
17235;SDS011;8734;59.272;17.780;2022-07-03T15:07:42;4.75;;;1.10;;
17235;SDS011;8734;59.272;17.780;2022-07-03T15:10:13;1.85;;;0.77;;
17235;SDS011;8734;59.272;17.780;2022-07-03T15:12:45;5.72;;;1.60;;
17235;SDS011;8734;59.272;17.780;2022-07-03T15:15:16;3.33;;;0.82;;
17235;SDS011;8734;59.272;17.780;2022-07-03T15:17:48;2.50;;;0.70;;
17235;SDS011;8734;59.272;17.780;2022-07-03T15:20:18;2.05;;;0.80;;
17235;SDS011;8734;59.272;17.780;2022-07-03T15:22:48;1.67;;;0.70;;
17235;SDS011;8734;59.272;17.780;2022-07-03T15:25:19;2.00;;;0.83;;